createdAt,value
2019-02-23T00:01:15.638Z,3.73
2019-02-23T00:03:43.444Z,3.07
2019-02-23T00:06:29.279Z,3.27
2019-02-23T00:08:48.578Z,3.67
2019-02-23T00:11:16.339Z,2.83
2019-02-23T00:13:44.234Z,3.50
2019-02-23T00:16:12.181Z,3.47
2019-02-23T00:18:39.955Z,2.83
2019-02-23T00:21:07.783Z,3.23
2019-02-23T00:23:35.698Z,3.30
2019-02-23T00:26:03.652Z,2.83
2019-02-23T00:28:31.590Z,3.23
2019-02-23T00:30:59.500Z,2.97
2019-02-23T00:33:27.382Z,2.63
2019-02-23T00:35:55.282Z,2.80
2019-02-23T00:38:23.180Z,3.17
2019-02-23T00:40:50.953Z,3.10
2019-02-23T00:43:18.860Z,3.00
2019-02-23T00:45:46.683Z,3.07
2019-02-23T00:48:14.578Z,3.37
2019-02-23T00:50:42.475Z,3.37
2019-02-23T00:53:10.526Z,2.90
2019-02-23T00:55:38.339Z,3.10
2019-02-23T00:58:06.276Z,3.23
2019-02-23T01:00:34.190Z,3.63
2019-02-23T01:03:01.974Z,3.27
2019-02-23T01:05:29.873Z,3.83
2019-02-23T01:07:57.889Z,3.50
2019-02-23T01:10:25.885Z,3.60
2019-02-23T01:12:53.790Z,3.93
2019-02-23T01:15:21.805Z,3.00
2019-02-23T01:17:49.556Z,3.80
2019-02-23T01:20:17.549Z,3.63
2019-02-23T01:22:45.381Z,4.27
2019-02-23T01:25:13.376Z,3.47
2019-02-23T01:27:41.393Z,3.23
2019-02-23T01:30:10.326Z,3.40
2019-02-23T01:32:38.200Z,3.63
2019-02-23T01:35:06.425Z,3.90
2019-02-23T01:37:34.416Z,4.13
2019-02-23T01:40:02.324Z,4.03
2019-02-23T01:42:30.238Z,4.33
2019-02-23T01:44:58.120Z,4.43
2019-02-23T01:47:26.116Z,6.00
2019-02-23T01:49:58.821Z,4.07
2019-02-23T01:52:23.663Z,4.27
2019-02-23T01:54:51.623Z,4.57
2019-02-23T01:57:19.577Z,3.47
2019-02-23T01:59:47.261Z,3.97
2019-02-23T02:02:15.243Z,3.83
2019-02-23T02:04:43.074Z,3.80
2019-02-23T02:07:10.956Z,3.67
2019-02-23T02:09:38.853Z,3.37
2019-02-23T02:12:08.503Z,4.37
2019-02-23T02:14:37.005Z,4.07
2019-02-23T02:17:04.790Z,4.37
2019-02-23T02:19:32.816Z,3.80
2019-02-23T02:22:00.736Z,3.50
2019-02-23T02:24:28.594Z,3.33
2019-02-23T02:26:56.421Z,4.10
2019-02-23T02:29:24.417Z,3.80
2019-02-23T02:31:52.283Z,3.63
2019-02-23T02:34:20.228Z,3.80
2019-02-23T02:36:48.034Z,3.63
2019-02-23T02:39:15.907Z,3.10
2019-02-23T02:41:43.893Z,3.40
2019-02-23T02:44:11.735Z,3.97
2019-02-23T02:46:39.609Z,3.53
2019-02-23T02:49:07.623Z,4.47
2019-02-23T02:51:35.542Z,4.23
2019-02-23T02:54:03.494Z,3.53
2019-02-23T02:56:31.495Z,3.97
2019-02-23T02:58:59.327Z,4.40
2019-02-23T03:01:27.022Z,4.10
2019-02-23T03:03:54.931Z,3.60
2019-02-23T03:06:22.817Z,4.53
2019-02-23T03:08:50.623Z,3.53
2019-02-23T03:11:18.415Z,4.50
2019-02-23T03:13:46.314Z,4.30
2019-02-23T03:16:14.307Z,4.03
2019-02-23T03:18:42.245Z,4.10
2019-02-23T03:21:10.243Z,3.90
2019-02-23T03:23:38.083Z,3.57
2019-02-23T03:26:06.023Z,3.80
2019-02-23T03:28:35.376Z,3.70
2019-02-23T03:31:03.341Z,3.57
2019-02-23T03:33:31.284Z,3.10
2019-02-23T03:35:59.193Z,4.23
2019-02-23T03:38:27.162Z,2.97
2019-02-23T03:40:55.176Z,2.90
2019-02-23T03:43:23.192Z,2.20
2019-02-23T03:45:51.193Z,3.30
2019-02-23T03:48:19.182Z,3.17
2019-02-23T03:50:49.482Z,3.13
2019-02-23T03:53:16.799Z,2.37
2019-02-23T03:55:44.623Z,2.97
2019-02-23T03:58:12.519Z,2.90
2019-02-23T04:00:40.375Z,3.03
2019-02-23T04:03:08.402Z,2.73
2019-02-23T04:05:36.322Z,2.20
2019-02-23T04:08:04.308Z,3.77
2019-02-23T04:10:32.215Z,3.00
2019-02-23T04:13:00.125Z,2.33
2019-02-23T04:15:28.123Z,3.10
2019-02-23T04:17:56.093Z,2.33
2019-02-23T04:20:24.042Z,2.57
2019-02-23T04:22:51.879Z,2.87
2019-02-23T04:25:19.821Z,2.60
2019-02-23T04:27:47.619Z,2.37
2019-02-23T04:30:17.134Z,2.67
2019-02-23T04:32:45.036Z,2.23
2019-02-23T04:35:12.856Z,3.10
2019-02-23T04:37:40.749Z,2.43
2019-02-23T04:40:08.782Z,1.93
2019-02-23T04:42:36.660Z,2.77
2019-02-23T04:45:04.633Z,2.87
2019-02-23T04:47:32.551Z,2.40
2019-02-23T04:50:00.557Z,2.20
2019-02-23T04:52:28.533Z,2.13
2019-02-23T04:54:56.567Z,2.50
2019-02-23T04:57:24.470Z,2.50
2019-02-23T04:59:52.135Z,2.07
2019-02-23T05:02:20.059Z,2.33
2019-02-23T05:04:47.761Z,2.53
2019-02-23T05:07:15.466Z,2.27
2019-02-23T05:09:43.361Z,2.50
2019-02-23T05:12:11.256Z,2.10
2019-02-23T05:14:39.137Z,2.40
2019-02-23T05:17:07.140Z,2.07
2019-02-23T05:19:35.056Z,3.77
2019-02-23T05:22:02.934Z,2.30
2019-02-23T05:24:30.955Z,2.03
2019-02-23T05:26:58.884Z,2.60
2019-02-23T05:29:26.763Z,2.10
2019-02-23T05:31:55.683Z,1.80
2019-02-23T05:34:23.724Z,1.97
2019-02-23T05:36:51.906Z,1.60
2019-02-23T05:39:19.820Z,2.43
2019-02-23T05:41:47.691Z,2.20
2019-02-23T05:44:15.568Z,1.63
2019-02-23T05:46:43.522Z,1.97
2019-02-23T05:49:11.398Z,2.10
2019-02-23T05:51:39.312Z,2.57
2019-02-23T05:54:07.206Z,2.10
2019-02-23T05:56:35.096Z,1.70
2019-02-23T05:59:02.982Z,2.13
2019-02-23T06:01:30.995Z,2.40
2019-02-23T06:03:58.909Z,1.80
2019-02-23T06:06:26.876Z,1.93
2019-02-23T06:08:54.795Z,2.23
2019-02-23T06:11:22.842Z,2.03
2019-02-23T06:13:50.691Z,3.30
2019-02-23T06:16:18.603Z,2.20
2019-02-23T06:18:46.520Z,2.20
2019-02-23T06:21:14.515Z,2.10
2019-02-23T06:23:42.495Z,2.20
2019-02-23T06:26:10.337Z,2.47
2019-02-23T06:28:38.080Z,2.80
2019-02-23T06:31:06.024Z,2.03
2019-02-23T06:33:34.847Z,2.33
2019-02-23T06:36:02.589Z,2.70
2019-02-23T06:38:30.535Z,2.50
2019-02-23T06:40:58.550Z,2.27
2019-02-23T06:43:26.392Z,2.40
2019-02-23T06:45:54.322Z,2.53
2019-02-23T06:48:22.133Z,2.90
2019-02-23T06:50:50.043Z,2.53
2019-02-23T06:53:17.933Z,2.77
2019-02-23T06:55:45.860Z,2.90
2019-02-23T06:58:13.688Z,3.87
2019-02-23T07:00:41.639Z,2.53
2019-02-23T07:03:09.571Z,2.40
2019-02-23T07:05:37.493Z,3.37
2019-02-23T07:08:05.426Z,2.90
2019-02-23T07:10:33.243Z,4.37
2019-02-23T07:13:13.462Z,3.37
2019-02-23T07:15:41.451Z,2.87
2019-02-23T07:18:09.166Z,5.83
2019-02-23T07:20:44.223Z,3.37
2019-02-23T07:23:06.872Z,3.17
2019-02-23T07:25:34.780Z,3.50
2019-02-23T07:28:02.731Z,4.17
2019-02-23T07:30:31.059Z,3.00
2019-02-23T07:32:59.037Z,2.60
2019-02-23T07:35:27.920Z,2.50
2019-02-23T07:37:55.823Z,2.70
2019-02-23T07:40:23.951Z,3.10
2019-02-23T07:42:51.839Z,4.53
2019-02-23T07:45:19.754Z,2.60
2019-02-23T07:47:47.595Z,3.30
2019-02-23T07:50:15.531Z,3.33
2019-02-23T07:52:43.336Z,2.70
2019-02-23T07:55:11.553Z,2.50
2019-02-23T07:57:39.436Z,3.77
2019-02-23T08:00:07.862Z,2.83
2019-02-23T08:02:35.743Z,2.90
2019-02-23T08:05:03.960Z,2.80
2019-02-23T08:07:31.808Z,1.80
2019-02-23T08:09:59.635Z,2.47
2019-02-23T08:12:27.550Z,2.43
2019-02-23T08:14:55.580Z,2.80
2019-02-23T08:17:23.566Z,2.97
2019-02-23T08:19:51.463Z,2.27
2019-02-23T08:22:19.479Z,2.53
2019-02-23T08:24:47.432Z,2.63
2019-02-23T08:27:15.384Z,2.53
2019-02-23T08:29:43.255Z,2.47
2019-02-23T08:32:11.127Z,2.43
2019-02-23T08:34:41.933Z,4.47
2019-02-23T08:37:10.752Z,3.20
2019-02-23T08:39:38.628Z,3.13
2019-02-23T08:42:06.700Z,5.80
2019-02-23T08:44:34.459Z,3.43
2019-02-23T08:47:02.433Z,2.93
2019-02-23T08:49:30.366Z,2.23
2019-02-23T08:51:58.413Z,2.20
2019-02-23T08:54:26.218Z,3.47
2019-02-23T08:56:55.348Z,2.80
2019-02-23T08:59:23.518Z,2.63
2019-02-23T09:01:51.282Z,3.03
2019-02-23T09:04:19.203Z,2.30
2019-02-23T09:06:47.103Z,2.57
2019-02-23T09:09:14.894Z,2.53
2019-02-23T09:11:42.908Z,2.90
2019-02-23T09:14:10.801Z,1.83
2019-02-23T09:16:38.669Z,2.53
2019-02-23T09:19:06.595Z,2.00
2019-02-23T09:21:34.500Z,1.50
2019-02-23T09:24:02.459Z,5.63
2019-02-23T09:26:30.391Z,2.83
2019-02-23T09:28:58.187Z,3.00
2019-02-23T09:31:26.175Z,2.10
2019-02-23T09:33:53.990Z,1.93
2019-02-23T09:36:21.919Z,2.57
2019-02-23T09:38:50.890Z,1.87
2019-02-23T09:41:18.834Z,2.27
2019-02-23T09:43:46.717Z,2.37
2019-02-23T09:46:14.580Z,2.20
2019-02-23T09:48:42.515Z,2.00
2019-02-23T09:51:10.444Z,2.10
2019-02-23T09:53:38.305Z,2.80
2019-02-23T09:56:06.316Z,2.07
2019-02-23T09:58:34.021Z,1.73
2019-02-23T10:01:01.866Z,2.53
2019-02-23T10:03:29.831Z,2.10
2019-02-23T10:05:57.641Z,2.20
2019-02-23T10:08:25.700Z,1.87
2019-02-23T10:10:54.639Z,2.20
2019-02-23T10:13:22.549Z,2.03
2019-02-23T10:15:50.415Z,1.87
2019-02-23T10:18:18.448Z,3.30
2019-02-23T10:20:46.334Z,2.30
2019-02-23T10:23:21.460Z,2.17
2019-02-23T10:25:43.887Z,2.43
2019-02-23T10:28:11.790Z,2.33
2019-02-23T10:30:39.747Z,2.10
2019-02-23T10:33:07.703Z,2.30
2019-02-23T10:35:35.431Z,2.00
2019-02-23T10:38:03.383Z,2.00
2019-02-23T10:40:32.411Z,2.30
2019-02-23T10:43:00.323Z,2.37
2019-02-23T10:45:28.219Z,2.37
2019-02-23T10:47:56.192Z,2.87
2019-02-23T10:50:24.015Z,3.33
2019-02-23T10:52:51.978Z,3.07
2019-02-23T10:55:19.916Z,2.50
2019-02-23T10:57:47.806Z,3.13
2019-02-23T11:00:19.612Z,3.03
2019-02-23T11:02:47.622Z,2.83
2019-02-23T11:05:16.717Z,2.50
2019-02-23T11:07:44.594Z,2.47
2019-02-23T11:10:12.971Z,2.63
2019-02-23T11:12:40.771Z,2.93
2019-02-23T11:15:09.081Z,2.27
2019-02-23T11:17:36.951Z,2.00
2019-02-23T11:20:04.684Z,2.40
2019-02-23T11:22:32.527Z,2.50
2019-02-23T11:25:00.552Z,2.70
2019-02-23T11:27:28.477Z,2.30
2019-02-23T11:29:56.425Z,3.10
2019-02-23T11:32:24.476Z,2.57
2019-02-23T11:34:52.531Z,2.33
2019-02-23T11:37:20.334Z,2.27
2019-02-23T11:39:48.248Z,2.20
2019-02-23T11:42:16.164Z,2.40
2019-02-23T11:44:44.023Z,1.83
2019-02-23T11:47:12.039Z,1.90
2019-02-23T11:49:39.767Z,1.80
2019-02-23T11:52:07.727Z,2.00
2019-02-23T11:54:36.676Z,1.43
2019-02-23T11:57:04.510Z,1.70
2019-02-23T11:59:32.367Z,2.00
2019-02-23T12:02:00.288Z,1.43
2019-02-23T12:04:28.195Z,2.17
2019-02-23T12:06:55.824Z,1.50
2019-02-23T12:09:23.787Z,1.50
2019-02-23T12:11:51.798Z,1.80
2019-02-23T12:14:19.675Z,1.67
2019-02-23T12:16:47.596Z,2.07
2019-02-23T12:19:15.496Z,1.93
2019-02-23T12:21:43.373Z,1.80
2019-02-23T12:24:11.500Z,1.67
2019-02-23T12:26:39.110Z,1.53
2019-02-23T12:29:06.972Z,1.90
2019-02-23T12:31:34.775Z,1.80
2019-02-23T12:34:02.810Z,2.00
2019-02-23T12:36:30.661Z,1.70
2019-02-23T12:38:58.593Z,1.63
2019-02-23T12:41:26.716Z,1.92
2019-02-23T12:43:54.669Z,2.43
2019-02-23T12:46:22.587Z,2.57
2019-02-23T12:48:50.521Z,1.60
2019-02-23T12:51:18.375Z,2.00
2019-02-23T12:53:46.486Z,2.10
2019-02-23T12:56:14.337Z,2.83
2019-02-23T12:58:42.291Z,1.83
2019-02-23T13:01:10.183Z,2.13
2019-02-23T13:03:38.096Z,3.00
2019-02-23T13:06:05.695Z,1.80
2019-02-23T13:08:51.816Z,1.63
2019-02-23T13:11:19.536Z,2.03
2019-02-23T13:14:25.103Z,2.17
2019-02-23T13:16:58.680Z,2.00
2019-02-23T13:19:48.298Z,2.13
2019-02-23T13:22:47.436Z,2.10
2019-02-23T13:25:34.615Z,2.50
2019-02-23T13:28:21.785Z,2.43
2019-02-23T13:31:03.427Z,2.53
2019-02-23T13:33:50.576Z,2.77
2019-02-23T13:36:43.812Z,2.53
2019-02-23T13:39:18.767Z,2.10
2019-02-23T13:42:12.108Z,3.07
2019-02-23T13:45:01.037Z,2.47
2019-02-23T13:47:33.227Z,2.27
2019-02-23T13:50:15.996Z,2.27
2019-02-23T13:53:12.556Z,2.43
2019-02-23T13:55:58.421Z,2.33
2019-02-23T13:58:29.198Z,2.40
2019-02-23T14:01:16.879Z,2.50
2019-02-23T14:04:13.172Z,2.10
2019-02-23T14:07:00.220Z,2.57
2019-02-23T14:09:47.477Z,2.60
2019-02-23T14:12:43.776Z,2.73
2019-02-23T14:15:19.769Z,1.80
2019-02-23T14:18:02.751Z,1.80
2019-02-23T14:20:57.013Z,2.23
2019-02-23T14:23:35.988Z,1.67
2019-02-23T14:26:32.048Z,2.10
2019-02-23T14:29:06.146Z,2.33
2019-02-23T14:31:59.444Z,1.90
2019-02-23T14:34:31.156Z,2.20
2019-02-23T14:37:08.979Z,2.27
2019-02-23T14:40:02.221Z,1.80
2019-02-23T14:42:52.407Z,3.00
2019-02-23T14:45:42.268Z,1.70
2019-02-23T14:48:33.827Z,2.23
2019-02-23T14:51:21.099Z,2.37
2019-02-23T14:53:59.748Z,2.00
2019-02-23T14:56:46.054Z,1.60
2019-02-23T14:59:42.791Z,2.00
2019-02-23T15:02:28.542Z,1.97
2019-02-23T15:05:15.815Z,2.13
2019-02-23T15:08:12.083Z,2.20
2019-02-23T15:10:50.516Z,2.10
2019-02-23T15:13:37.610Z,1.53
2019-02-23T15:16:24.751Z,2.17
2019-02-23T15:18:58.377Z,1.93
2019-02-23T15:21:39.156Z,2.47
2019-02-23T15:24:26.335Z,2.40
2019-02-23T15:27:28.991Z,1.53
2019-02-23T15:30:16.139Z,1.70
2019-02-23T15:33:03.401Z,2.00
2019-02-23T15:35:56.512Z,1.90
2019-02-23T15:38:31.065Z,1.77
2019-02-23T15:41:21.462Z,2.03
2019-02-23T15:44:11.582Z,2.27
2019-02-23T15:46:57.532Z,2.37
2019-02-23T15:49:28.644Z,2.00
2019-02-23T15:51:56.529Z,2.87
2019-02-23T15:54:24.417Z,2.00
2019-02-23T15:56:52.412Z,1.80
2019-02-23T15:59:20.353Z,2.10
2019-02-23T16:01:48.396Z,1.90
2019-02-23T16:04:16.316Z,2.17
2019-02-23T16:06:44.212Z,1.97
2019-02-23T16:09:12.074Z,2.27
2019-02-23T16:11:40.193Z,1.80
2019-02-23T16:14:08.062Z,1.77
2019-02-23T16:16:35.878Z,2.03
2019-02-23T16:19:03.793Z,2.40
2019-02-23T16:21:31.733Z,2.50
2019-02-23T16:23:59.603Z,2.00
2019-02-23T16:26:27.604Z,1.53
2019-02-23T16:28:55.944Z,2.40
2019-02-23T16:31:23.922Z,2.10
2019-02-23T16:33:51.691Z,2.37
2019-02-23T16:36:19.541Z,1.90
2019-02-23T16:38:47.313Z,2.47
2019-02-23T16:41:16.177Z,1.93
2019-02-23T16:43:44.059Z,2.13
2019-02-23T16:46:11.911Z,2.00
2019-02-23T16:48:39.823Z,2.00
2019-02-23T16:51:07.692Z,1.80
2019-02-23T16:53:35.516Z,2.30
2019-02-23T16:56:03.454Z,1.87
2019-02-23T16:58:31.375Z,1.83
2019-02-23T17:00:59.327Z,1.87
2019-02-23T17:03:27.364Z,1.97
2019-02-23T17:05:55.282Z,2.47
2019-02-23T17:08:23.123Z,2.40
2019-02-23T17:10:51.172Z,1.90
2019-02-23T17:13:18.954Z,1.70
2019-02-23T17:15:46.858Z,1.90
2019-02-23T17:18:14.754Z,1.90
2019-02-23T17:20:42.460Z,2.30
2019-02-23T17:23:10.453Z,2.00
2019-02-23T17:25:38.447Z,2.20
2019-02-23T17:28:07.133Z,1.80
2019-02-23T17:30:35.193Z,1.90
2019-02-23T17:33:03.184Z,2.47
2019-02-23T17:35:31.195Z,2.40
2019-02-23T17:37:59.058Z,2.27
2019-02-23T17:40:27.011Z,3.23
2019-02-23T17:42:54.962Z,2.17
2019-02-23T17:45:22.914Z,2.30
2019-02-23T17:47:50.773Z,2.00
2019-02-23T17:50:18.723Z,2.13
2019-02-23T17:52:46.691Z,2.70
2019-02-23T17:55:14.803Z,2.00
2019-02-23T17:57:42.692Z,2.40
2019-02-23T18:00:11.100Z,2.67
2019-02-23T18:02:39.182Z,2.17
2019-02-23T18:05:07.149Z,2.20
2019-02-23T18:07:34.978Z,4.30
2019-02-23T18:10:02.887Z,2.73
2019-02-23T18:12:30.881Z,2.90
2019-02-23T18:14:59.021Z,2.70
2019-02-23T18:17:27.092Z,2.63
2019-02-23T18:19:55.024Z,2.70
2019-02-23T18:22:23.131Z,2.40
2019-02-23T18:24:51.100Z,2.90
2019-02-23T18:27:19.597Z,3.00
2019-02-23T18:29:47.462Z,2.77
2019-02-23T18:32:15.459Z,2.53
2019-02-23T18:34:43.413Z,2.60
2019-02-23T18:37:11.556Z,2.53
2019-02-23T18:39:39.524Z,1.90
2019-02-23T18:42:07.558Z,1.90
2019-02-23T18:44:35.434Z,2.47
2019-02-23T18:47:03.242Z,2.20
2019-02-23T18:49:31.220Z,1.97
2019-02-23T18:51:59.063Z,1.97
2019-02-23T18:54:27.162Z,2.40
2019-02-23T18:56:55.200Z,2.00
2019-02-23T18:59:23.374Z,3.10
2019-02-23T19:01:51.342Z,2.03
2019-02-23T19:04:19.206Z,2.43
2019-02-23T19:06:47.121Z,3.10
2019-02-23T19:09:15.145Z,2.83
2019-02-23T19:11:43.114Z,3.20
2019-02-23T19:14:11.094Z,2.97
2019-02-23T19:16:39.257Z,2.50
2019-02-23T19:19:07.380Z,2.80
2019-02-23T19:21:35.396Z,2.47
2019-02-23T19:24:03.571Z,2.63
2019-02-23T19:26:37.970Z,2.80
2019-02-23T19:29:01.350Z,2.57
2019-02-23T19:31:29.248Z,2.70
2019-02-23T19:33:57.155Z,2.50
2019-02-23T19:36:25.155Z,2.67
2019-02-23T19:38:53.048Z,2.83
2019-02-23T19:41:21.019Z,3.47
2019-02-23T19:43:48.986Z,3.17
2019-02-23T19:46:17.234Z,2.80
2019-02-23T19:48:45.211Z,2.43
2019-02-23T19:51:13.147Z,2.77
2019-02-23T19:53:41.163Z,2.77
2019-02-23T19:56:09.067Z,2.40
2019-02-23T19:58:37.878Z,2.23
2019-02-23T20:01:06.102Z,2.30
2019-02-23T20:03:34.215Z,2.40
2019-02-23T20:06:02.208Z,2.67
2019-02-23T20:08:30.105Z,2.20
2019-02-23T20:10:58.000Z,2.40
2019-02-23T20:13:25.916Z,2.97
2019-02-23T20:15:53.895Z,2.93
2019-02-23T20:18:21.874Z,3.10
2019-02-23T20:20:49.816Z,2.63
2019-02-23T20:23:18.132Z,2.50
2019-02-23T20:25:46.329Z,2.90
2019-02-23T20:28:14.414Z,2.87
2019-02-23T20:30:42.353Z,2.67
2019-02-23T20:33:10.354Z,2.10
2019-02-23T20:35:39.850Z,2.40
2019-02-23T20:38:09.805Z,2.80
2019-02-23T20:40:40.992Z,2.30
2019-02-23T20:43:10.612Z,2.50
2019-02-23T20:45:40.874Z,2.83
2019-02-23T20:48:10.389Z,2.53
2019-02-23T20:50:58.409Z,2.57
2019-02-23T20:53:28.562Z,2.10
2019-02-23T20:55:59.435Z,2.70
2019-02-23T20:58:30.300Z,2.37
2019-02-23T21:00:59.964Z,2.63
2019-02-23T21:03:29.859Z,2.30
2019-02-23T21:05:59.912Z,3.07
2019-02-23T21:08:49.674Z,2.70
2019-02-23T21:11:19.430Z,2.90
2019-02-23T21:13:48.875Z,2.90
2019-02-23T21:16:18.643Z,3.00
2019-02-23T21:18:47.889Z,2.50
2019-02-23T21:21:16.096Z,2.93
2019-02-23T21:23:43.985Z,2.90
2019-02-23T21:26:12.154Z,2.93
2019-02-23T21:28:40.228Z,2.70
2019-02-23T21:31:08.150Z,2.90
2019-02-23T21:33:36.010Z,2.30
2019-02-23T21:36:03.900Z,3.27
2019-02-23T21:38:31.914Z,2.97
2019-02-23T21:40:59.980Z,2.87
2019-02-23T21:43:27.791Z,2.60
2019-02-23T21:45:55.581Z,2.73
2019-02-23T21:48:23.463Z,3.00
2019-02-23T21:50:51.306Z,2.40
2019-02-23T21:53:19.218Z,3.00
2019-02-23T21:55:47.124Z,2.87
2019-02-23T21:58:14.926Z,3.17
2019-02-23T22:00:42.772Z,2.70
2019-02-23T22:03:10.749Z,2.83
2019-02-23T22:05:38.595Z,2.40
2019-02-23T22:08:06.464Z,2.77
2019-02-23T22:10:34.410Z,3.10
2019-02-23T22:13:02.411Z,3.33
2019-02-23T22:15:30.398Z,3.17
2019-02-23T22:17:59.289Z,3.37
2019-02-23T22:20:27.239Z,2.93
2019-02-23T22:22:55.196Z,3.17
2019-02-23T22:25:23.118Z,3.10
2019-02-23T22:27:51.032Z,3.23
2019-02-23T22:30:18.843Z,2.40
2019-02-23T22:32:46.773Z,2.97
2019-02-23T22:35:14.624Z,2.80
2019-02-23T22:37:42.488Z,2.97
2019-02-23T22:40:10.410Z,2.63
2019-02-23T22:42:38.243Z,2.40
2019-02-23T22:45:06.185Z,2.63
2019-02-23T22:47:34.210Z,2.30
2019-02-23T22:50:02.051Z,2.67
2019-02-23T22:52:29.907Z,2.50
2019-02-23T22:54:57.892Z,2.80
2019-02-23T22:57:25.656Z,2.63
2019-02-23T22:59:53.587Z,2.90
2019-02-23T23:02:21.599Z,2.47
2019-02-23T23:04:49.417Z,2.90
2019-02-23T23:07:17.295Z,1.97
2019-02-23T23:09:45.291Z,2.40
2019-02-23T23:12:13.133Z,2.40
2019-02-23T23:14:40.984Z,2.33
2019-02-23T23:17:08.993Z,2.37
2019-02-23T23:19:36.818Z,2.20
2019-02-23T23:22:04.800Z,3.03
2019-02-23T23:24:32.740Z,2.97
2019-02-23T23:27:00.646Z,2.97
2019-02-23T23:29:28.515Z,2.83
2019-02-23T23:31:56.431Z,2.50
2019-02-23T23:34:24.333Z,2.23
2019-02-23T23:36:52.190Z,2.33
2019-02-23T23:39:20.504Z,2.10
2019-02-23T23:41:48.353Z,2.37
2019-02-23T23:44:16.200Z,2.17
2019-02-23T23:46:44.210Z,2.40
2019-02-23T23:49:12.041Z,2.37
2019-02-23T23:51:40.008Z,2.10
2019-02-23T23:54:07.932Z,2.33
2019-02-23T23:56:35.939Z,2.20
2019-02-23T23:59:03.708Z,2.23
